Overview Statistics Trail Chart Weather Telemetry Raw packets
 

This is the latest recevied weather packets stored in our database for station/object SV9TNF-51. If no packets are shown the sender has not sent any weather packets the latest 10 day(s).

<< 18 19 20 21 22 23 24 >>
Time Temp. Humidity Pressure Rain* Wind** Luminosity Snow
1788538787 30° C 36% 1011.5 hPa 0 mm 0.89 m/s, 125° - -
1788538487 30° C 36% 1011.5 hPa 0 mm 2.68 m/s, 129° - -
1788538187 30.56° C 35% 1011.5 hPa 0 mm 2.24 m/s, 98° - -
1788537887 30.56° C 34% 1011.5 hPa 0 mm 0.89 m/s, 127° - -
1788537586 31.11° C 33% 1011.9 hPa 0 mm 1.79 m/s, 120° - -
1788537286 31.11° C 34% 1011.9 hPa 0 mm 1.79 m/s, 123° - -
1788536986 31.67° C 34% 1011.9 hPa 0 mm 1.79 m/s, 130° - -
1788536686 31.67° C 35% 1011.9 hPa 0 mm 2.68 m/s, 134° - -
1788536386 31.67° C 35% 1011.9 hPa 0 mm 3.13 m/s, 121° - -
1788536086 32.22° C 35% 1011.9 hPa 0 mm 0.89 m/s, 138° - -
1788535786 32.22° C 35% 1011.9 hPa 0 mm 1.34 m/s, 119° - -
1788535486 32.22° C 35% 1011.9 hPa 0 mm 2.24 m/s, 137° - -
1788535186 33.33° C 31% 1011.9 hPa 0 mm 0.45 m/s, 134° - -
1788534886 33.33° C 32% 1011.9 hPa 0 mm 1.34 m/s, 164° - -
1788534585 33.89° C 32% 1011.5 hPa 0 mm 1.79 m/s, 125° - -
1788534285 33.33° C 33% 1011.5 hPa 0 mm 1.34 m/s, 118° - -
1788533985 33.33° C 34% 1011.5 hPa 0 mm 1.34 m/s, 180° - -
1788533685 33.33° C 36% 1011.5 hPa 0 mm 3.13 m/s, 330° - -
1788533385 32.78° C 35% 1011.5 hPa 0 mm 1.79 m/s, 130° - -
1788533085 31.67° C 35% 1011.9 hPa 0 mm 4.92 m/s, 124° - -
1788532785 32.78° C 36% 1011.9 hPa 0 mm 1.34 m/s, 126° - -
1788532485 32.22° C 37% 1011.9 hPa 0 mm 4.02 m/s, 131° - -
1788532185 32.22° C 39% 1011.9 hPa 0 mm 4.92 m/s, 351° - -
1788531884 32.22° C 38% 1011.9 hPa 0 mm 4.02 m/s, 174° - -
1788531585 32.78° C 39% 1011.9 hPa 0 mm 2.68 m/s, 352° - -

* Rain latest hour (hover to see other rain measurements)
** Current wind speed in m/s (hover to see current wind gust speed)